createdAt,value
2019-04-22T00:01:01.310Z,53.30
2019-04-22T00:03:39.017Z,53.40
2019-04-22T00:06:25.900Z,53.40
2019-04-22T00:08:55.541Z,53.50
2019-04-22T00:11:29.292Z,53.60
2019-04-22T00:16:45.425Z,54.20
2019-04-22T00:21:38.427Z,53.90
2019-04-22T00:24:04.502Z,53.90
2019-04-22T00:26:40.631Z,54.00
2019-04-22T00:29:34.514Z,54.00
2019-04-22T00:31:45.919Z,53.90
2019-04-22T00:34:17.832Z,53.80
2019-04-22T00:36:52.012Z,54.00
2019-04-22T00:39:25.452Z,54.00
2019-04-22T00:41:52.049Z,54.20
2019-04-22T00:44:25.645Z,54.20
2019-04-22T00:46:54.429Z,55.10
2019-04-22T00:51:59.564Z,54.70
2019-04-22T00:54:29.159Z,54.80
2019-04-22T00:56:54.334Z,54.90
2019-04-22T00:59:33.003Z,55.00
2019-04-22T01:02:05.283Z,55.10
2019-04-22T01:04:34.599Z,55.10
2019-04-22T01:07:07.645Z,55.20
2019-04-22T01:09:43.246Z,55.30
2019-04-22T01:12:07.531Z,55.40
2019-04-22T01:14:35.304Z,55.60
2019-04-22T01:17:06.532Z,55.80
2019-04-22T01:19:47.168Z,55.80
2019-04-22T01:22:13.342Z,55.80
2019-04-22T01:24:42.178Z,55.80
2019-04-22T01:27:08.142Z,55.70
2019-04-22T01:29:41.196Z,55.80
2019-04-22T01:31:58.324Z,56.60
2019-04-22T01:34:43.102Z,56.00
2019-04-22T01:37:21.762Z,56.20
2019-04-22T01:39:57.021Z,56.20
2019-04-22T01:42:29.866Z,56.40
2019-04-22T01:44:59.685Z,56.50
2019-04-22T01:47:32.805Z,56.50
2019-04-22T01:49:59.159Z,56.50
2019-04-22T01:52:41.565Z,56.60
2019-04-22T01:55:10.678Z,56.60
2019-04-22T01:57:37.613Z,56.70
2019-04-22T02:00:00.418Z,56.70
2019-04-22T02:05:16.049Z,56.60
2019-04-22T02:07:42.131Z,56.60
2019-04-22T02:10:14.083Z,56.60
2019-04-22T02:12:47.064Z,56.60
2019-04-22T02:15:16.677Z,56.60
2019-04-22T02:17:48.197Z,56.70
2019-04-22T02:20:18.415Z,57.50
2019-04-22T02:23:40.223Z,56.80
2019-04-22T02:25:59.310Z,56.90
2019-04-22T02:28:33.720Z,56.90
2019-04-22T02:33:57.065Z,57.10
2019-04-22T02:46:22.435Z,57.50
2019-04-22T02:48:53.369Z,57.70
2019-04-22T02:56:23.105Z,58.10
2019-04-22T02:58:58.720Z,58.10
2019-04-22T03:01:23.004Z,58.30
2019-04-22T03:04:00.698Z,58.30
2019-04-22T03:06:26.073Z,58.40
2019-04-22T03:08:59.279Z,58.40
2019-04-22T03:11:18.956Z,58.40
2019-04-22T03:13:59.895Z,58.40
2019-04-22T03:21:27.905Z,58.60
2019-04-22T03:32:33.450Z,59.00
2019-04-22T03:45:00.390Z,59.00
2019-04-22T03:49:58.974Z,59.10
2019-04-22T03:52:16.299Z,59.20
2019-04-22T03:55:05.171Z,59.30
2019-04-22T03:59:48.029Z,59.40
2019-04-22T04:02:41.357Z,59.50
2019-04-22T04:04:53.856Z,59.50
2019-04-22T04:07:38.380Z,59.50
2019-04-22T04:12:23.568Z,59.30
2019-04-22T04:17:29.631Z,59.30
2019-04-22T04:30:59.821Z,59.50
2019-04-22T04:37:52.303Z,59.60
2019-04-22T04:40:17.970Z,59.70
2019-04-22T04:42:41.369Z,59.70
2019-04-22T04:53:01.310Z,60.00
2019-04-22T04:55:24.090Z,60.20
2019-04-22T04:57:57.637Z,60.30
2019-04-22T05:02:58.379Z,60.50
2019-04-22T05:05:18.183Z,60.60
2019-04-22T05:07:48.570Z,60.60
2019-04-22T05:13:01.630Z,60.70
2019-04-22T05:23:10.553Z,60.80
2019-04-22T05:25:25.252Z,60.90
2019-04-22T05:28:11.806Z,60.90
2019-04-22T05:30:26.708Z,61.00
2019-04-22T05:32:54.781Z,61.20
2019-04-22T05:35:26.265Z,61.30
2019-04-22T05:38:03.110Z,61.40
2019-04-22T05:40:28.015Z,61.50
2019-04-22T05:43:02.250Z,61.50
2019-04-22T05:45:36.875Z,61.70
2019-04-22T05:48:04.515Z,62.00
2019-04-22T05:50:32.661Z,62.20
2019-04-22T05:53:00.755Z,62.50
2019-04-22T05:55:41.525Z,62.70
2019-04-22T05:58:10.400Z,62.70
2019-04-22T06:01:04.194Z,62.90
2019-04-22T06:03:11.958Z,63.10
2019-04-22T06:05:41.685Z,63.30
2019-04-22T06:08:11.617Z,63.40
2019-04-22T06:10:53.386Z,63.40
2019-04-22T06:13:09.938Z,63.40
2019-04-22T06:15:44.002Z,63.60
2019-04-22T06:21:00.580Z,63.40
2019-04-22T06:23:34.333Z,63.50
2019-04-22T06:26:20.658Z,63.50
2019-04-22T06:31:06.896Z,63.50
2019-04-22T06:33:34.655Z,63.60
2019-04-22T06:38:34.073Z,63.70
2019-04-22T06:41:08.792Z,63.80
2019-04-22T06:43:41.943Z,63.90
2019-04-22T06:46:17.109Z,63.90
2019-04-22T06:49:01.446Z,63.80
2019-04-22T06:51:16.995Z,63.80
2019-04-22T06:53:43.993Z,63.70
2019-04-22T06:56:15.875Z,63.70
2019-04-22T06:58:45.718Z,63.60
2019-04-22T07:01:24.571Z,63.60
2019-04-22T07:03:53.585Z,63.40
2019-04-22T07:06:37.319Z,63.40
2019-04-22T07:09:14.067Z,63.40
2019-04-22T07:11:18.881Z,63.30
2019-04-22T07:13:56.606Z,63.40
2019-04-22T07:16:25.064Z,63.50
2019-04-22T07:18:56.700Z,63.50
2019-04-22T07:21:25.981Z,63.60
2019-04-22T07:24:14.598Z,63.60
2019-04-22T07:26:25.263Z,63.70
2019-04-22T07:29:01.546Z,63.60
2019-04-22T07:31:49.805Z,63.70
2019-04-22T07:34:13.449Z,63.60
2019-04-22T07:39:04.466Z,63.30
2019-04-22T07:41:38.246Z,63.10
2019-04-22T07:46:43.191Z,63.00
2019-04-22T07:49:10.639Z,63.10
2019-04-22T07:51:43.642Z,63.00
2019-04-22T07:54:14.291Z,63.00
2019-04-22T07:56:48.619Z,62.90
2019-04-22T07:59:15.201Z,63.10
2019-04-22T08:01:43.920Z,63.00
2019-04-22T08:04:23.061Z,63.00
2019-04-22T08:06:52.356Z,62.90
2019-04-22T08:14:28.328Z,62.60
2019-04-22T08:17:01.438Z,62.50
2019-04-22T08:19:28.164Z,62.20
2019-04-22T08:21:56.976Z,62.20
2019-04-22T08:24:29.278Z,62.10
2019-04-22T08:27:02.139Z,61.80
2019-04-22T08:29:43.802Z,61.60
2019-04-22T08:32:01.097Z,61.40
2019-04-22T08:34:35.747Z,61.20
2019-04-22T08:37:37.459Z,61.20
2019-04-22T08:39:38.465Z,61.10
2019-04-22T08:42:08.313Z,60.80
2019-04-22T08:45:08.006Z,60.30
2019-04-22T08:49:50.902Z,59.90
2019-04-22T08:52:16.520Z,59.80
2019-04-22T08:54:44.914Z,59.80
2019-04-22T08:57:22.926Z,59.60
2019-04-22T08:59:48.663Z,59.80
2019-04-22T09:02:20.484Z,59.90
2019-04-22T09:04:43.376Z,59.90
2019-04-22T09:07:31.566Z,59.90
2019-04-22T09:09:50.700Z,59.80
2019-04-22T09:12:23.883Z,59.70
2019-04-22T09:14:49.737Z,59.80
2019-04-22T09:17:28.118Z,59.60
2019-04-22T09:19:55.931Z,59.40
2019-04-22T09:22:21.161Z,59.20
2019-04-22T09:24:55.165Z,59.10
2019-04-22T09:30:01.119Z,59.00
2019-04-22T09:32:34.842Z,58.90
2019-04-22T09:35:16.009Z,58.90
2019-04-22T09:37:34.639Z,58.60
2019-04-22T09:40:12.132Z,58.40
2019-04-22T09:42:39.570Z,58.30
2019-04-22T09:45:05.840Z,58.00
2019-04-22T09:47:40.937Z,57.90
2019-04-22T09:50:12.759Z,57.90
2019-04-22T09:52:45.668Z,58.10
2019-04-22T09:55:21.719Z,58.10
2019-04-22T09:57:41.307Z,58.00
2019-04-22T10:00:28.613Z,57.80
2019-04-22T10:02:49.066Z,57.50
2019-04-22T10:05:11.464Z,57.10
2019-04-22T10:07:44.953Z,56.80
2019-04-22T10:12:48.205Z,56.60
2019-04-22T10:15:23.377Z,56.60
2019-04-22T10:17:53.400Z,56.50
2019-04-22T10:20:24.855Z,56.20
2019-04-22T10:22:51.928Z,56.10
2019-04-22T10:25:27.351Z,56.00
2019-04-22T10:28:04.834Z,56.00
2019-04-22T10:30:33.886Z,56.00
2019-04-22T10:32:56.280Z,56.00
2019-04-22T10:35:17.202Z,55.90
2019-04-22T10:37:42.783Z,56.50
2019-04-22T10:40:19.872Z,55.50
2019-04-22T10:42:51.397Z,55.10
2019-04-22T10:45:21.963Z,54.60
2019-04-22T10:47:52.267Z,54.10
2019-04-22T10:50:24.627Z,53.90
2019-04-22T10:52:55.279Z,53.70
2019-04-22T10:55:25.434Z,53.50
2019-04-22T10:57:54.924Z,53.50
2019-04-22T11:00:24.445Z,53.40
2019-04-22T11:02:54.195Z,53.10
2019-04-22T11:05:24.104Z,52.60
2019-04-22T11:07:58.973Z,51.80
2019-04-22T11:10:41.223Z,51.00
2019-04-22T11:12:56.796Z,50.50
2019-04-22T11:15:26.667Z,50.10
2019-04-22T11:17:57.649Z,49.60
2019-04-22T11:20:27.243Z,49.10
2019-04-22T11:22:56.683Z,48.90
2019-04-22T11:25:26.124Z,48.40
2019-04-22T11:27:55.858Z,47.80
2019-04-22T11:30:28.160Z,47.50
2019-04-22T11:32:58.393Z,47.30
2019-04-22T11:35:28.028Z,47.00
2019-04-22T11:37:58.969Z,46.90
2019-04-22T11:40:36.381Z,46.90
2019-04-22T11:43:00.035Z,46.80
2019-04-22T11:45:29.983Z,45.80
2019-04-22T11:48:01.530Z,45.00
2019-04-22T11:50:31.219Z,44.40
2019-04-22T11:53:00.866Z,44.10
2019-04-22T11:55:30.905Z,43.70
2019-04-22T11:58:01.138Z,42.90
2019-04-22T12:00:34.781Z,41.60
2019-04-22T12:03:05.167Z,40.70
2019-04-22T12:05:34.773Z,40.70
2019-04-22T12:08:05.024Z,40.80
2019-04-22T12:10:41.116Z,41.00
2019-04-22T12:13:06.272Z,41.20
2019-04-22T12:15:37.132Z,40.60
2019-04-22T12:18:07.325Z,40.20
2019-04-22T12:20:37.205Z,40.20
2019-04-22T12:23:07.379Z,40.30
2019-04-22T12:25:47.607Z,40.50
2019-04-22T12:28:08.973Z,40.70
2019-04-22T12:30:39.427Z,40.50
2019-04-22T12:33:11.671Z,41.00
2019-04-22T12:35:40.121Z,39.40
2019-04-22T12:38:11.138Z,38.30
2019-04-22T12:40:48.691Z,37.40
2019-04-22T12:43:12.837Z,36.90
2019-04-22T12:45:44.619Z,36.30
2019-04-22T12:48:15.025Z,35.80
2019-04-22T12:50:48.010Z,36.00
2019-04-22T12:53:20.554Z,35.70
2019-04-22T12:55:48.205Z,35.30
2019-04-22T12:58:18.115Z,35.60
2019-04-22T13:00:48.415Z,35.90
2019-04-22T13:03:18.434Z,36.40
2019-04-22T13:05:49.463Z,37.00
2019-04-22T13:08:20.022Z,37.00
2019-04-22T13:10:58.696Z,36.30
2019-04-22T13:13:20.753Z,35.40
2019-04-22T13:15:51.010Z,35.20
2019-04-22T13:18:30.986Z,35.20
2019-04-22T13:20:52.799Z,35.40
2019-04-22T13:23:22.313Z,35.80
2019-04-22T13:25:52.702Z,36.10
2019-04-22T13:28:23.037Z,36.20
2019-04-22T13:30:52.825Z,36.30
2019-04-22T13:33:23.214Z,36.50
2019-04-22T13:35:54.242Z,36.60
2019-04-22T13:38:24.964Z,36.60
2019-04-22T13:41:09.754Z,36.60
2019-04-22T13:43:25.403Z,36.60
2019-04-22T13:45:56.034Z,36.90
2019-04-22T13:48:51.715Z,37.00
2019-04-22T13:54:40.468Z,37.60
2019-04-22T13:56:19.447Z,37.90
2019-04-22T13:58:44.896Z,37.80
2019-04-22T14:01:06.940Z,37.80
2019-04-22T14:04:04.978Z,37.80
2019-04-22T14:06:34.761Z,38.00
2019-04-22T14:09:07.447Z,38.10
2019-04-22T14:11:48.895Z,38.20
2019-04-22T14:14:09.201Z,38.40
2019-04-22T14:16:38.960Z,38.30
2019-04-22T14:19:09.845Z,37.80
2019-04-22T14:21:41.079Z,37.20
2019-04-22T14:24:12.488Z,36.70
2019-04-22T14:26:54.921Z,36.60
2019-04-22T14:29:13.599Z,36.70
2019-04-22T14:31:44.523Z,37.00
2019-04-22T14:34:15.586Z,37.30
2019-04-22T14:36:45.527Z,37.70
2019-04-22T14:39:15.681Z,37.80
2019-04-22T14:42:00.824Z,37.60
2019-04-22T14:45:12.253Z,37.60
2019-04-22T14:47:15.791Z,37.60
2019-04-22T14:49:43.375Z,37.20
2019-04-22T14:52:15.140Z,36.90
2019-04-22T14:54:36.267Z,36.50
2019-04-22T14:56:54.142Z,36.10
2019-04-22T14:59:25.076Z,36.40
2019-04-22T15:01:55.908Z,36.60
2019-04-22T15:04:26.814Z,37.00
2019-04-22T15:06:57.035Z,37.50
2019-04-22T15:09:27.907Z,37.60
2019-04-22T15:12:09.289Z,37.40
2019-04-22T15:14:29.882Z,37.10
2019-04-22T15:17:18.728Z,36.60
2019-04-22T15:20:01.583Z,36.00
2019-04-22T15:22:32.611Z,35.20
2019-04-22T15:25:02.950Z,34.40
2019-04-22T15:27:33.192Z,34.00
2019-04-22T15:30:03.558Z,33.90
2019-04-22T15:32:33.646Z,34.00
2019-04-22T15:35:03.068Z,34.40
2019-04-22T15:37:33.231Z,34.80
2019-04-22T15:40:03.055Z,35.40
2019-04-22T15:42:37.410Z,35.90
2019-04-22T15:45:05.927Z,36.00
2019-04-22T15:47:35.264Z,35.90
2019-04-22T15:50:07.928Z,35.20
2019-04-22T15:52:43.718Z,34.60
2019-04-22T15:55:09.179Z,34.10
2019-04-22T15:57:39.855Z,33.80
2019-04-22T16:00:22.380Z,33.50
2019-04-22T16:02:43.611Z,33.50
2019-04-22T16:05:12.995Z,33.50
2019-04-22T16:07:43.962Z,33.70
2019-04-22T16:10:13.769Z,33.90
2019-04-22T16:12:52.857Z,34.00
2019-04-22T16:15:14.467Z,33.90
2019-04-22T16:17:44.584Z,33.60
2019-04-22T16:20:15.160Z,33.40
2019-04-22T16:23:03.470Z,33.00
2019-04-22T16:26:05.233Z,33.10
2019-04-22T16:28:35.356Z,33.50
2019-04-22T16:31:04.901Z,34.10
2019-04-22T16:33:38.383Z,34.60
2019-04-22T16:36:07.192Z,35.20
2019-04-22T16:38:37.240Z,35.80
2019-04-22T16:41:06.794Z,36.10
2019-04-22T16:43:36.586Z,36.40
2019-04-22T16:46:07.522Z,36.70
2019-04-22T16:48:38.032Z,37.20
2019-04-22T16:51:07.560Z,37.60
2019-04-22T16:53:37.115Z,38.00
2019-04-22T16:56:06.978Z,38.20
2019-04-22T16:58:36.816Z,38.30
2019-04-22T17:01:10.366Z,38.20
2019-04-22T17:04:02.758Z,38.30
2019-04-22T17:06:35.493Z,38.40
2019-04-22T17:09:07.057Z,38.50
2019-04-22T17:11:36.320Z,38.70
2019-04-22T17:14:05.707Z,38.70
2019-04-22T17:16:36.669Z,38.80
2019-04-22T17:19:06.288Z,38.70
2019-04-22T17:21:35.828Z,38.80
2019-04-22T17:24:07.757Z,38.90
2019-04-22T17:26:38.672Z,39.00
2019-04-22T17:29:08.422Z,39.10
2019-04-22T17:31:40.878Z,39.20
2019-04-22T17:34:09.660Z,40.00
2019-04-22T17:36:40.442Z,39.60
2019-04-22T17:39:22.823Z,39.70
2019-04-22T17:41:59.332Z,39.80
2019-04-22T17:47:16.342Z,40.00
2019-04-22T17:50:05.200Z,40.20
2019-04-22T17:52:24.754Z,40.30
2019-04-22T17:54:51.832Z,40.40
2019-04-22T17:57:31.687Z,40.50
2019-04-22T17:59:54.696Z,40.60
2019-04-22T18:02:27.986Z,40.90
2019-04-22T18:04:47.991Z,41.00
2019-04-22T18:07:35.831Z,41.20
2019-04-22T18:12:44.173Z,41.60
2019-04-22T18:15:12.058Z,41.90
2019-04-22T18:17:41.022Z,42.20
2019-04-22T18:20:09.432Z,42.60
2019-04-22T18:22:31.117Z,42.90
2019-04-22T18:25:02.015Z,43.20
2019-04-22T18:27:48.059Z,43.60
2019-04-22T18:30:04.003Z,43.90
2019-04-22T18:32:41.086Z,44.10
2019-04-22T18:35:11.796Z,44.20
2019-04-22T18:37:43.746Z,44.40
2019-04-22T18:40:15.165Z,44.60
2019-04-22T18:42:52.574Z,44.80
2019-04-22T18:45:35.572Z,45.10
2019-04-22T18:47:43.632Z,45.30
2019-04-22T18:50:30.693Z,45.30
2019-04-22T18:53:14.294Z,45.60
2019-04-22T18:55:39.045Z,45.80
2019-04-22T18:58:10.197Z,45.90
2019-04-22T19:00:31.741Z,46.00
2019-04-22T19:03:09.246Z,46.10
2019-04-22T19:05:49.480Z,46.20
2019-04-22T19:08:39.241Z,46.40
2019-04-22T19:11:02.584Z,46.50
2019-04-22T19:13:51.242Z,46.60
2019-04-22T19:16:14.352Z,46.80
2019-04-22T19:18:50.211Z,46.90
2019-04-22T19:21:07.824Z,47.00
2019-04-22T19:23:33.245Z,47.10
2019-04-22T19:26:07.112Z,47.30
2019-04-22T19:28:51.090Z,47.50
2019-04-22T19:31:13.451Z,47.80
2019-04-22T19:33:44.439Z,47.60
2019-04-22T19:36:11.389Z,47.80
2019-04-22T19:38:28.579Z,48.00
2019-04-22T19:43:46.973Z,48.30
2019-04-22T19:46:12.994Z,49.10
2019-04-22T19:48:49.320Z,48.60
2019-04-22T19:51:25.729Z,48.70
2019-04-22T19:53:54.551Z,48.80
2019-04-22T19:56:13.829Z,49.00
2019-04-22T19:58:50.681Z,49.00
2019-04-22T20:01:42.978Z,49.20
2019-04-22T20:04:46.083Z,49.10
2019-04-22T20:07:05.919Z,49.20
2019-04-22T20:09:45.783Z,49.20
2019-04-22T20:12:04.339Z,49.30
2019-04-22T20:14:40.278Z,49.40
2019-04-22T20:17:07.565Z,49.50
2019-04-22T20:19:45.493Z,50.10
2019-04-22T20:22:15.851Z,49.60
2019-04-22T20:24:28.402Z,49.60
2019-04-22T20:27:18.888Z,49.80
2019-04-22T20:29:47.823Z,49.70
2019-04-22T20:32:20.224Z,49.80
2019-04-22T20:34:51.247Z,49.70
2019-04-22T20:37:39.963Z,49.60
2019-04-22T20:39:52.889Z,49.50
2019-04-22T20:44:56.743Z,49.50
2019-04-22T20:47:22.011Z,49.60
2019-04-22T20:50:04.474Z,49.70
2019-04-22T20:52:36.790Z,49.70
2019-04-22T20:54:55.903Z,49.70
2019-04-22T20:57:32.042Z,50.40
2019-04-22T20:59:57.571Z,49.80
2019-04-22T21:02:25.323Z,49.80
2019-04-22T21:04:53.693Z,50.00
2019-04-22T21:07:26.733Z,50.00
2019-04-22T21:10:07.677Z,50.50
2019-04-22T21:12:27.786Z,50.20
2019-04-22T21:15:13.605Z,50.10
2019-04-22T21:17:39.021Z,50.20
2019-04-22T21:20:15.009Z,50.20
2019-04-22T21:22:38.991Z,50.30
2019-04-22T21:25:06.177Z,50.30
2019-04-22T21:27:45.343Z,50.40
2019-04-22T21:30:10.684Z,50.50
2019-04-22T21:32:45.389Z,50.60
2019-04-22T21:35:33.261Z,50.70
2019-04-22T21:37:55.203Z,50.70
2019-04-22T21:40:20.170Z,50.80
2019-04-22T21:42:57.944Z,50.90
2019-04-22T21:45:16.540Z,50.80
2019-04-22T21:47:57.711Z,51.00
2019-04-22T21:53:01.259Z,51.00
2019-04-22T21:55:31.691Z,51.20
2019-04-22T21:58:27.645Z,51.20
2019-04-22T22:01:14.590Z,51.30
2019-04-22T22:03:44.287Z,51.40
2019-04-22T22:06:01.433Z,51.50
2019-04-22T22:08:45.964Z,51.60
2019-04-22T22:11:13.896Z,51.60
2019-04-22T22:13:45.382Z,51.70
2019-04-22T22:16:11.467Z,51.90
2019-04-22T22:18:52.787Z,51.90
2019-04-22T22:21:37.720Z,52.00
2019-04-22T22:23:49.347Z,52.10
2019-04-22T22:26:13.404Z,52.20
2019-04-22T22:29:02.237Z,52.30
2019-04-22T22:31:31.893Z,52.30
2019-04-22T22:33:51.439Z,52.30
2019-04-22T22:36:22.147Z,52.30
2019-04-22T22:38:46.996Z,52.40
2019-04-22T22:41:07.634Z,52.40
2019-04-22T22:43:43.239Z,52.40
2019-04-22T22:46:19.821Z,52.70
2019-04-22T22:49:02.565Z,52.40
2019-04-22T22:51:39.529Z,52.30
2019-04-22T22:54:09.346Z,52.30
2019-04-22T22:56:45.532Z,52.30
2019-04-22T22:59:03.089Z,52.20
2019-04-22T23:01:37.422Z,52.30
2019-04-22T23:04:09.930Z,52.30
2019-04-22T23:06:39.221Z,52.20
2019-04-22T23:09:09.828Z,52.20
2019-04-22T23:12:00.303Z,52.30
2019-04-22T23:14:17.547Z,52.20
2019-04-22T23:16:32.879Z,52.20
2019-04-22T23:19:06.371Z,52.20
2019-04-22T23:21:41.630Z,52.20
2019-04-22T23:27:17.929Z,51.60
2019-04-22T23:29:51.092Z,52.20
2019-04-22T23:32:24.993Z,52.20
2019-04-22T23:35:22.942Z,52.20
2019-04-22T23:37:52.355Z,52.20
2019-04-22T23:40:32.724Z,52.20
2019-04-22T23:43:00.121Z,52.10
2019-04-22T23:45:34.844Z,52.10
2019-04-22T23:47:49.519Z,52.10
2019-04-22T23:50:30.866Z,52.00
2019-04-22T23:53:04.858Z,51.90
2019-04-22T23:55:37.397Z,52.00
2019-04-22T23:58:11.763Z,51.90
